Choupique, Louisiana
Current Conditions -  °F | °C
As of 2:55 PM on Friday 19 Dec 2014 (Local Time) from KOPL Reporting Station
Drizzle Drizzle  
Wind Chill: 53°   Ceiling: 400
Heat Index: 53°   Visibility: 10mi
Dew Point: 53°   Wind: 9mph
Humidity: 97%   Direction: 30°NNE
Pressure: 30.05"   Gusts: NA
Location:  30.9227°N, 91.987°W
Report Text: KOPL 192055Z AUTO 03008KT 10SM DZ OVC004 12/11 A3005 RMK AO2 P0025 60055 T01190114
Loading
Personal Weather Stations






























Interactive Weather Map New forecast layout! Learn more

10-Day Weather Forecast

Advertisements
Track Severe Weather on mobile